sim
Sign-in with your pilot id or email,
or register
Callsign
Passwort

Schedule Details

Flight Number: DLH2443 (2)
Departure: Copenhagen Airport (EKCH) at 12:30
Arrival: Munich Airport (EDDM) at 14:05
Route: Lufthansa Passenger Schedule. Enter filed route here before submitting Pirep.

Weather Information
Getting current METAR information for EKCH 220520Z 14004KT 0100 R22L/0300D R04L/0175N R12/0325N FG VV001 14/14 Q1012 BECMG 9999 FEW002
Getting current METAR information for EDDM 220520Z 10002KT 2500 1000SE R08L/0900U R08R/P2000N BCFG NSC 08/08 Q1015 NOSIG

Schedule Frequency

Route Map